createdAt,value
2023-03-26T00:00:02.530Z,1000.9
2023-03-26T00:15:03.146Z,1000.5
2023-03-26T00:30:02.413Z,1001.1
2023-03-26T00:45:02.824Z,1001.1
2023-03-26T01:00:03.397Z,1001.3
2023-03-26T01:15:02.715Z,1001.2
2023-03-26T01:30:03.214Z,1001.0
2023-03-26T01:45:02.617Z,1001.0
2023-03-26T02:00:03.212Z,1000.8
2023-03-26T02:15:02.455Z,1000.7
2023-03-26T02:30:02.894Z,1000.6
2023-03-26T02:45:02.331Z,1000.4
2023-03-26T03:00:02.784Z,1000.4
2023-03-26T03:15:03.251Z,1000.2
2023-03-26T03:30:02.671Z,1000.3
2023-03-26T03:45:03.264Z,1000.2
2023-03-26T04:00:03.509Z,1000.1
2023-03-26T04:30:02.448Z,999.8
2023-03-26T04:45:02.866Z,999.8
2023-03-26T05:00:02.333Z,999.7
2023-03-26T05:15:02.758Z,999.5
2023-03-26T05:30:03.259Z,999.5
2023-03-26T05:45:02.597Z,999.3
2023-03-26T06:00:03.248Z,999.3
2023-03-26T06:15:02.533Z,999.3
2023-03-26T06:30:02.980Z,999.0
2023-03-26T06:45:02.399Z,998.9
2023-03-26T07:00:02.815Z,998.9
2023-03-26T07:15:03.301Z,998.8
2023-03-26T07:30:02.724Z,998.8
2023-03-26T07:45:03.294Z,998.6
2023-03-26T08:00:02.578Z,998.5
2023-03-26T08:15:03.041Z,998.5
2023-03-26T08:30:02.451Z,998.6
2023-03-26T08:45:02.904Z,998.4
2023-03-26T09:00:02.946Z,998.3
2023-03-26T09:15:02.753Z,998.2
2023-03-26T09:30:02.301Z,998.1
2023-03-26T09:45:02.665Z,998.0
2023-03-26T10:00:03.325Z,998.2
2023-03-26T10:15:02.539Z,998.1
2023-03-26T10:30:02.951Z,998.0
2023-03-26T10:45:02.394Z,998.0
2023-03-26T11:00:02.838Z,998.0
2023-03-26T11:15:02.327Z,998.1
2023-03-26T11:30:02.688Z,998.0
2023-03-26T11:45:03.340Z,998.0
2023-03-26T12:00:02.577Z,997.9
2023-03-26T12:15:03.008Z,998.0
2023-03-26T12:30:02.469Z,998.0
2023-03-26T12:45:02.861Z,998.0
2023-03-26T13:00:02.431Z,998.0
2023-03-26T13:15:02.731Z,998.0
2023-03-26T13:30:03.364Z,998.1
2023-03-26T13:45:04.682Z,998.1
2023-03-26T14:00:02.096Z,998.1
2023-03-26T14:15:02.498Z,998.2
2023-03-26T14:30:02.950Z,998.4
2023-03-26T14:45:02.363Z,998.4
2023-03-26T15:00:02.814Z,998.6
2023-03-26T15:15:03.370Z,998.6
2023-03-26T15:30:02.683Z,998.8
2023-03-26T15:45:03.115Z,998.9
2023-03-26T16:00:02.574Z,999.1
2023-03-26T16:15:03.021Z,999.3
2023-03-26T16:30:02.470Z,999.3
2023-03-26T16:45:02.892Z,999.6
2023-03-26T17:00:06.616Z,999.9
2023-03-26T17:15:02.744Z,1000.1
2023-03-26T17:30:02.398Z,1000.4
2023-03-26T17:45:02.633Z,1000.9
2023-03-26T18:00:03.073Z,1001.2
2023-03-26T18:15:02.494Z,1001.6
2023-03-26T18:30:03.389Z,1001.7
2023-03-26T19:00:02.833Z,1002.6
2023-03-26T19:15:02.400Z,1002.6
2023-03-26T19:30:02.699Z,1002.9
2023-03-26T19:45:03.154Z,1003.4
2023-03-26T20:00:02.559Z,1003.2
2023-03-26T20:15:03.016Z,1003.5
2023-03-26T20:30:02.468Z,1003.5
2023-03-26T20:45:02.909Z,1003.8
2023-03-26T21:00:02.433Z,1004.0
2023-03-26T21:15:09.886Z,1004.2
2023-03-26T21:30:03.436Z,1004.3
2023-03-26T21:45:02.652Z,1004.6
2023-03-26T22:00:03.083Z,1004.7
2023-03-26T22:30:02.982Z,1005.3
2023-03-26T22:45:02.448Z,1005.5
2023-03-26T23:00:02.834Z,1005.8
2023-03-26T23:15:03.468Z,1006.0
2023-03-26T23:30:02.724Z,1006.3
2023-03-26T23:45:03.176Z,1006.6
